METAR AND TAF INFORMATION
METAR FOR LECH
ADDS - METARS form results

(0325 UTC 07 April 2020)
Data provider http://aviationweather.gov/metar/data/
 
METAR text: LECH 070300Z AUTO 00000KT 6000 -RA FEW050 11/10 Q1025
Conditions at: LECH (CASTELLON , ES) observed 0300 UTC 07 April 2020
Temperature: 11.0°C (52°F)
Dewpoint: 10.0°C (50°F) [RH = 94%]
Pressure (altimeter): 30.27 inches Hg (1025.0 mb)
Winds: calm
Visibility: 4 miles ( 6 km)
Ceiling: at least 12,000 feet AGL
Clouds: few clouds at 5000 feet AGL
Weather: -RA  (light rain)

METAR text: LECH 070230Z AUTO 00000KT 6000 NSC 11/10 Q1025
Conditions at: LECH (CASTELLON , ES) observed 0230 UTC 07 April 2020
Temperature: 11.0°C (52°F)
Dewpoint: 10.0°C (50°F) [RH = 94%]
Pressure (altimeter): 30.27 inches Hg (1025.0 mb)
Winds: calm
Visibility: 4 miles ( 6 km)
Ceiling: at least 12,000 feet AGL
Clouds: sky clear below 12,000 feet AGL
Weather: no significant weather observed at this time

 AIRPORT MAP

 RUNWAY INFORMATION

 AIRPORT FREQUENCIES

 AIRPORT NEAR NAVIGATION AIDS



Powered by Virtual Airlines Manager [v2.6.2]